Terminal Aerodrome Forecast
Issued by NWS Portland, ME

Home | Current Version | Previous Version | Text Only | Print | Product List | Glossary On
Versions: 1 2 3 4 5 6 7 8 9 10 11 12 13 14 15 16 17 18 19
000
FTUS41 KGYX 260538
TAFCON
TAF
KCON 260538Z 2606/2706 VRB03KT P6SM BKN200
     FM261600 01008KT 2SM -SN BR OVC015
     FM261900 36012KT 1/4SM +SN FG VV003
     FM270300 34016G28KT 2SM -SN BLSN BR OVC005=

USA.gov is the U.S. government's official web portal to all federal, state and local government web resources and services.